Time;durP1;ratioP1;P1;durP2;ratioP2;P2;SDS_P1;SDS_P2;PMS_P1;PMS_P2;Temp;Humidity;BMP_temperature;BMP_pressure;BME280_temperature;BME280_humidity;BME280_pressure;Samples;Min_cycle;Max_cycle;Signal;HPM_P1;HPM_P2
2022/01/22 12:58:43;;;;;;;2.70;0.90;;;;;;;;;;6400401;22;20007;-94
2022/01/22 13:01:31;;;;;;;2.55;0.68;;;;;;;;;;6375886;22;20002;-95
2022/01/22 13:04:11;;;;;;;4.38;1.00;;;;;;;;;;6400391;22;20013;-94
2022/01/22 13:06:54;;;;;;;3.10;1.10;;;;;;;;;;6400282;22;20017;-96
2022/01/22 13:10:06;;;;;;;0.95;0.63;;;;;;;;;;6353807;22;20006;-94
2022/01/22 13:12:52;;;;;;;1.60;0.95;;;;;;;;;;6400122;22;20006;-95
2022/01/22 13:15:37;;;;;;;7.78;1.50;;;;;;;;;;6400245;22;20002;-94
2022/01/22 13:18:38;;;;;;;9.30;2.28;;;;;;;;;;6400258;22;20006;-95
2022/01/22 13:21:58;;;;;;;12.40;2.60;;;;;;;;;;6398900;22;20002;-94
2022/01/22 13:25:00;;;;;;;8.13;2.35;;;;;;;;;;6400065;22;20006;-93
2022/01/22 13:28:17;;;;;;;4.97;1.67;;;;;;;;;;6399188;22;20028;-93
2022/01/22 13:31:20;;;;;;;5.15;1.95;;;;;;;;;;6375878;22;20026;-94
2022/01/22 13:34:32;;;;;;;8.10;1.98;;;;;;;;;;6398777;22;20002;-94
2022/01/22 13:38:12;;;;;;;5.85;1.80;;;;;;;;;;6399702;22;19998;-94
2022/01/22 13:49:58;;;;;;;1.77;0.80;;;;;;;;;;6400544;22;20029;-93
2022/01/22 13:52:49;;;;;;;3.45;0.88;;;;;;;;;;6400157;22;20049;-93
2022/01/22 13:56:05;;;;;;;7.78;1.10;;;;;;;;;;6399852;22;20006;-92
2022/01/22 13:59:19;;;;;;;9.73;1.75;;;;;;;;;;6400002;22;20009;-94
2022/01/22 14:05:51;;;;;;;10.90;2.67;;;;;;;;;;6399432;22;20029;-95
2022/01/22 14:08:55;;;;;;;4.05;1.13;;;;;;;;;;6399628;22;20040;-94
2022/01/22 14:20:34;;;;;;;2.50;1.25;;;;;;;;;;6312509;22;20008;-95
2022/01/22 14:23:23;;;;;;;5.78;1.55;;;;;;;;;;6368262;22;20021;-94
2022/01/22 14:26:21;;;;;;;1.95;0.80;;;;;;;;;;6345371;22;20054;-93
2022/01/22 14:29:07;;;;;;;4.15;0.90;;;;;;;;;;6368301;22;19999;-94
2022/01/22 14:31:57;;;;;;;3.08;1.00;;;;;;;;;;6367379;22;20014;-94
2022/01/22 14:34:42;;;;;;;7.90;1.20;;;;;;;;;;6344937;22;20026;-95
2022/01/22 14:37:25;;;;;;;2.22;1.02;;;;;;;;;;6368076;22;20028;-95
2022/01/22 14:46:27;;;;;;;5.20;1.90;;;;;;;;;;6368363;22;20007;-93
2022/01/22 14:49:09;;;;;;;6.95;2.17;;;;;;;;;;6345239;22;20002;-95
2022/01/22 14:51:52;;;;;;;9.88;2.10;;;;;;;;;;6367776;22;20058;-93
2022/01/22 14:54:35;;;;;;;9.00;1.73;;;;;;;;;;6366934;22;20002;-93
2022/01/22 14:57:19;;;;;;;11.25;1.75;;;;;;;;;;6322481;22;20006;-94
2022/01/22 15:00:06;;;;;;;10.93;2.55;;;;;;;;;;6368364;22;20014;-94
2022/01/22 15:02:47;;;;;;;;;;;;;;;;;;6368900;22;19999;-94
2022/01/22 15:05:27;;;;;;;11.45;1.58;;;;;;;;;;6344086;22;19934;-94
2022/01/22 15:08:08;;;;;;;7.50;1.27;;;;;;;;;;6344924;22;20010;-93
2022/01/22 15:10:49;;;;;;;4.93;1.08;;;;;;;;;;6345161;22;20033;-94
2022/01/22 15:13:33;;;;;;;6.43;0.90;;;;;;;;;;6367671;22;20002;-94
2022/01/22 15:16:17;;;;;;;5.95;1.08;;;;;;;;;;6337235;22;19999;-94
2022/01/22 15:19:13;;;;;;;5.05;1.38;;;;;;;;;;6345089;22;20010;-94
2022/01/22 15:22:17;;;;;;;6.72;1.60;;;;;;;;;;6316857;22;20001;-93
2022/01/22 15:24:58;;;;;;;4.18;1.48;;;;;;;;;;6332710;22;20032;-94
2022/01/22 15:27:39;;;;;;;2.33;0.60;;;;;;;;;;6246354;22;20009;-94
2022/01/22 15:30:30;;;;;;;3.60;0.90;;;;;;;;;;6332385;22;20013;-95
2022/01/22 15:33:35;;;;;;;2.00;0.60;;;;;;;;;;6332356;22;20050;-94
2022/01/22 15:36:18;;;;;;;3.38;0.60;;;;;;;;;;6334384;22;20001;-94
2022/01/22 15:39:20;;;;;;;3.22;0.85;;;;;;;;;;6246050;22;20029;-95
2022/01/22 15:42:03;;;;;;;1.52;0.80;;;;;;;;;;6247324;22;20052;-94
2022/01/22 15:45:04;;;;;;;8.50;1.42;;;;;;;;;;6333974;22;20032;-93
2022/01/22 15:47:52;;;;;;;3.60;0.85;;;;;;;;;;6331454;22;20004;-94
2022/01/22 15:50:40;;;;;;;4.55;1.00;;;;;;;;;;6334573;22;20075;-94
2022/01/22 15:53:28;;;;;;;4.70;0.98;;;;;;;;;;6331724;22;20017;-94
2022/01/22 15:56:10;;;;;;;7.30;0.93;;;;;;;;;;6246039;22;20018;-94
2022/01/22 15:59:05;;;;;;;3.25;1.10;;;;;;;;;;6245913;22;20028;-95
2022/01/22 16:01:47;;;;;;;6.38;1.30;;;;;;;;;;6334309;22;20000;-94
2022/01/22 16:04:28;;;;;;;6.38;1.05;;;;;;;;;;6334184;22;20005;-95
2022/01/22 16:07:24;;;;;;;9.27;1.20;;;;;;;;;;6334324;22;20028;-94
2022/01/22 16:10:16;;;;;;;2.88;1.20;;;;;;;;;;6247272;22;20005;-94
2022/01/22 16:12:58;;;;;;;7.93;1.20;;;;;;;;;;6246004;22;20056;-94
2022/01/22 16:15:39;;;;;;;9.63;2.63;;;;;;;;;;6334166;22;20015;-95
2022/01/22 16:18:22;;;;;;;7.65;3.67;;;;;;;;;;6246909;22;20024;-95
2022/01/22 16:21:09;;;;;;;8.75;3.58;;;;;;;;;;6271665;22;20006;-94
2022/01/22 16:23:55;;;;;;;7.22;2.20;;;;;;;;;;6377864;22;20070;-94
2022/01/22 16:26:37;;;;;;;12.45;1.52;;;;;;;;;;6378379;22;20121;-96
2022/01/22 16:29:18;;;;;;;4.55;0.90;;;;;;;;;;6377767;22;20048;-94
2022/01/22 16:32:06;;;;;;;3.15;0.98;;;;;;;;;;6377969;22;19998;-95
2022/01/22 16:34:51;;;;;;;3.30;0.88;;;;;;;;;;6378530;22;20029;-94
2022/01/22 16:37:32;;;;;;;6.00;0.80;;;;;;;;;;6377543;22;19998;-93
2022/01/22 16:40:24;;;;;;;2.58;0.65;;;;;;;;;;6375623;22;20002;-94
2022/01/22 16:43:09;;;;;;;2.35;0.85;;;;;;;;;;6377585;22;20029;-96
2022/01/22 16:46:07;;;;;;;9.88;1.27;;;;;;;;;;6400489;22;20030;-94
2022/01/22 16:55:06;;;;;;;5.28;1.35;;;;;;;;;;6279917;22;20017;-96
2022/01/22 16:58:10;;;;;;;9.07;1.63;;;;;;;;;;6377442;22;20024;-95
2022/01/22 17:00:58;;;;;;;8.50;1.67;;;;;;;;;;6377541;22;20011;-95
2022/01/22 17:03:40;;;;;;;6.43;2.45;;;;;;;;;;6376470;22;20045;-94
2022/01/22 17:06:24;;;;;;;13.82;4.60;;;;;;;;;;6400630;22;20036;-95
2022/01/22 17:09:18;;;;;;;5.68;2.45;;;;;;;;;;6399848;22;20002;-94
2022/01/22 17:14:59;;;;;;;2.85;1.10;;;;;;;;;;6342863;22;20026;-95
2022/01/22 17:17:40;;;;;;;8.18;1.83;;;;;;;;;;6377207;22;20006;-95
2022/01/22 17:20:21;;;;;;;3.42;1.27;;;;;;;;;;6377308;22;20015;-95
2022/01/22 17:23:04;;;;;;;6.20;1.70;;;;;;;;;;6333561;22;20048;-95
2022/01/22 17:25:48;;;;;;;6.55;1.48;;;;;;;;;;6331107;22;20016;-95
2022/01/22 17:28:30;;;;;;;7.53;1.35;;;;;;;;;;6328632;22;20017;-95
2022/01/22 17:31:21;;;;;;;6.50;1.27;;;;;;;;;;6333550;22;20038;-95
2022/01/22 17:34:04;;;;;;;5.95;1.73;;;;;;;;;;6333258;22;20060;-96
2022/01/22 17:36:45;;;;;;;7.38;1.55;;;;;;;;;;6333435;22;20005;-95
2022/01/22 17:39:43;;;;;;;4.68;1.90;;;;;;;;;;6246387;22;20028;-94
2022/01/22 17:42:34;;;;;;;11.80;2.22;;;;;;;;;;6327176;22;20001;-95
2022/01/22 17:45:18;;;;;;;4.88;1.63;;;;;;;;;;6332863;22;20011;-95
2022/01/22 17:47:58;;;;;;;6.65;1.90;;;;;;;;;;6333229;22;20015;-95
2022/01/22 17:50:48;;;;;;;6.95;1.58;;;;;;;;;;6246574;22;20004;-95
2022/01/22 17:53:30;;;;;;;6.68;1.58;;;;;;;;;;6249029;22;20004;-94
2022/01/22 17:56:17;;;;;;;7.00;1.77;;;;;;;;;;6330687;22;20005;-95
2022/01/22 17:59:04;;;;;;;8.25;1.80;;;;;;;;;;6246199;22;20010;-94
2022/01/22 18:01:54;;;;;;;7.43;1.95;;;;;;;;;;6246601;22;20008;-94
2022/01/22 18:04:36;;;;;;;10.38;1.95;;;;;;;;;;6245165;22;20015;-94
2022/01/22 18:07:18;;;;;;;7.40;1.40;;;;;;;;;;6332051;22;20005;-94
2022/01/22 20:32:36;;;;;;;12.82;4.07;;;;;;;;;;6314095;22;20097;-93
2022/01/22 20:53:18;;;;;;;8.20;3.55;;;;;;;;;;6304998;22;20071;-94
2022/01/22 21:34:06;;;;;;;11.18;2.83;;;;;;;;;;6356189;22;20013;-93
2022/01/22 21:46:03;;;;;;;10.57;2.97;;;;;;;;;;6211852;22;20064;-95
2022/01/22 23:04:32;;;;;;;17.08;6.63;;;;;;;;;;6119817;22;20029;-93
